Time;durP1;ratioP1;P1;durP2;ratioP2;P2;SDS_P1;SDS_P2;PMS_P1;PMS_P2;Temp;Humidity;BMP_temperature;BMP_pressure;BME280_temperature;BME280_humidity;BME280_pressure;Samples;Min_cycle;Max_cycle;Signal;HPM_P1;HPM_P2
2021/06/03 00:01:08;;;;;;;2.70;1.15;;;;;;;21.46;64.80;101000.36;1608218;86;22034;-62
2021/06/03 00:03:35;;;;;;;1.42;0.82;;;;;;;21.43;64.78;100999.03;1604064;86;21090;-62
2021/06/03 00:06:04;;;;;;;1.60;1.22;;;;;;;21.41;64.76;100996.59;1603907;87;21041;-61
2021/06/03 00:08:30;;;;;;;1.85;1.00;;;;;;;21.42;64.75;101002.95;1599608;87;21061;-62
2021/06/03 00:11:07;;;;;;;2.00;1.07;;;;;;;21.43;64.80;101001.23;1598923;87;21644;-62
2021/06/03 00:13:35;;;;;;;1.10;0.75;;;;;;;21.43;64.88;100993.49;1599917;87;23420;-62
2021/06/03 00:16:07;;;;;;;1.70;1.10;;;;;;;21.43;64.95;100990.16;1602400;87;21179;-62
2021/06/03 00:18:33;;;;;;;1.50;0.88;;;;;;;21.45;65.02;100997.33;1636287;86;21579;-62
2021/06/03 00:20:59;;;;;;;1.70;0.90;;;;;;;21.44;65.02;101003.44;1607647;87;21031;-62
2021/06/03 00:23:25;;;;;;;1.77;0.98;;;;;;;21.43;65.03;100989.34;1611119;87;21024;-62
2021/06/03 00:25:51;;;;;;;2.00;1.10;;;;;;;21.43;64.99;100986.57;1602730;87;21684;-61
2021/06/03 00:28:18;;;;;;;2.55;0.93;;;;;;;21.43;64.94;100990.72;1601214;87;21624;-62
2021/06/03 00:30:46;;;;;;;2.02;1.12;;;;;;;21.41;64.91;100980.55;1609306;87;21583;-62
2021/06/03 00:33:13;;;;;;;2.00;0.85;;;;;;;21.41;64.90;100990.24;1600942;87;21183;-62
2021/06/03 00:35:40;;;;;;;1.77;1.12;;;;;;;21.38;64.85;100993.09;1630607;86;21092;-62
2021/06/03 00:38:06;;;;;;;1.90;1.22;;;;;;;21.36;64.82;100989.81;1633189;86;21088;-62
2021/06/03 00:40:32;;;;;;;1.30;0.88;;;;;;;21.36;64.82;100995.91;1602029;87;21061;-62
2021/06/03 00:42:58;;;;;;;1.22;0.80;;;;;;;21.33;64.79;100993.78;1600275;87;21107;-62
2021/06/03 00:45:30;;;;;;;1.22;0.82;;;;;;;21.34;64.77;100992.66;1611440;86;21504;-62
2021/06/03 00:47:57;;;;;;;2.02;1.00;;;;;;;21.35;64.80;100991.50;1599411;87;21101;-62
2021/06/03 00:50:31;;;;;;;1.72;1.10;;;;;;;21.35;64.88;100990.94;1608196;87;21082;-62
2021/06/03 00:52:57;;;;;;;2.65;1.10;;;;;;;21.36;64.95;100993.14;1601499;87;21115;-62
2021/06/03 00:55:23;;;;;;;1.92;0.90;;;;;;;21.36;65.03;100991.19;1603693;87;21345;-62
2021/06/03 00:57:49;;;;;;;1.40;0.98;;;;;;;21.36;65.05;100993.96;1601683;87;21044;-62
2021/06/03 01:00:17;;;;;;;1.45;0.88;;;;;;;21.35;65.05;100993.70;1623596;86;21058;-62
2021/06/03 01:02:43;;;;;;;1.50;0.95;;;;;;;21.36;65.01;100991.76;1606626;87;21171;-62
2021/06/03 01:05:26;;;;;;;1.65;1.05;;;;;;;21.35;64.97;100988.73;1599156;87;21486;-62
2021/06/03 01:07:53;;;;;;;1.67;0.93;;;;;;;21.35;64.92;100990.12;1608787;86;21871;-62
2021/06/03 01:10:35;;;;;;;1.20;0.98;;;;;;;21.33;64.91;100992.41;1627059;86;21068;-62
2021/06/03 01:13:44;;;;;;;1.92;1.32;;;;;;;21.31;64.86;100989.94;1581987;86;21052;-62
2021/06/03 01:16:10;;;;;;;1.82;1.10;;;;;;;21.29;64.82;100992.23;1602066;87;21273;-62
2021/06/03 01:18:38;;;;;;;1.92;1.10;;;;;;;21.26;64.81;100996.20;1607677;87;21083;-62
2021/06/03 01:21:15;;;;;;;1.70;1.10;;;;;;;21.26;64.78;100994.81;1608142;86;21100;-62
2021/06/03 01:23:58;;;;;;;1.52;1.10;;;;;;;21.27;64.82;100988.12;1600064;87;21479;-62
2021/06/03 01:26:24;;;;;;;1.55;1.00;;;;;;;21.28;64.89;100989.20;1609941;86;21028;-62
2021/06/03 01:28:51;;;;;;;1.30;0.85;;;;;;;21.28;64.96;100987.00;1605518;87;21456;-62
2021/06/03 01:31:17;;;;;;;1.70;1.00;;;;;;;21.28;65.03;100989.20;1586575;87;21087;-62
2021/06/03 01:33:43;;;;;;;1.55;1.02;;;;;;;21.29;65.07;100992.79;1605511;86;21128;-62
2021/06/03 01:36:13;;;;;;;1.40;1.12;;;;;;;21.28;65.05;100998.89;1604449;86;21518;-62
2021/06/03 01:38:40;;;;;;;1.60;1.00;;;;;;;21.28;65.03;100989.20;1607128;86;21076;-62
2021/06/03 01:41:08;;;;;;;1.60;1.10;;;;;;;21.27;64.96;100991.71;1605521;87;21189;-62
2021/06/03 01:43:36;;;;;;;1.15;0.95;;;;;;;21.28;64.95;101002.22;1603496;87;21102;-62
2021/06/03 01:46:03;;;;;;;1.98;1.10;;;;;;;21.27;64.91;100993.66;1600706;87;21055;-62
2021/06/03 01:48:29;;;;;;;1.72;1.10;;;;;;;21.24;64.89;100989.59;1590315;87;21025;-62
2021/06/03 01:50:57;;;;;;;1.80;1.25;;;;;;;21.22;64.84;100990.45;1601105;87;21079;-62
2021/06/03 01:53:25;;;;;;;1.72;1.00;;;;;;;21.21;64.81;100990.23;1604945;87;21143;-62
2021/06/03 01:55:52;;;;;;;1.02;0.80;;;;;;;21.19;64.81;100997.20;1604340;86;21542;-62
2021/06/03 01:58:18;;;;;;;1.55;0.90;;;;;;;21.22;64.79;100995.17;1596495;87;21143;-62
2021/06/03 02:00:44;;;;;;;2.08;0.82;;;;;;;21.22;64.81;100996.55;1617165;86;21037;-62
2021/06/03 02:03:10;;;;;;;1.00;0.72;;;;;;;21.22;64.88;101003.47;1603915;87;21072;-62
2021/06/03 02:05:36;;;;;;;1.52;0.93;;;;;;;21.23;64.97;100996.81;1606516;87;23181;-62
2021/06/03 02:08:03;;;;;;;1.50;0.80;;;;;;;21.23;65.02;100996.25;1600641;87;21053;-62
2021/06/03 02:10:30;;;;;;;1.77;0.90;;;;;;;21.24;65.04;100997.07;1608442;87;21017;-62
2021/06/03 02:13:06;;;;;;;2.15;1.00;;;;;;;21.22;65.03;100995.17;1608263;87;21091;-62
2021/06/03 02:15:36;;;;;;;1.57;0.95;;;;;;;21.22;65.00;100999.32;1599865;87;21032;-62
2021/06/03 02:18:05;;;;;;;1.40;0.93;;;;;;;21.23;64.95;101000.96;1634045;86;21146;-62
2021/06/03 02:20:35;;;;;;;1.27;0.90;;;;;;;21.22;64.91;101002.09;1602089;87;21812;-62
2021/06/03 02:23:01;;;;;;;1.52;0.98;;;;;;;21.21;64.85;100991.62;1604642;87;21093;-62
2021/06/03 02:25:28;;;;;;;0.98;0.72;;;;;;;21.19;64.81;100995.81;1603354;87;21037;-62
2021/06/03 02:27:55;;;;;;;1.37;0.90;;;;;;;21.18;64.79;101002.47;1602149;87;21575;-62
2021/06/03 02:30:22;;;;;;;1.57;1.10;;;;;;;21.15;64.76;101008.09;1599144;87;23255;-62
2021/06/03 02:32:49;;;;;;;1.12;0.80;;;;;;;21.13;64.75;101007.57;1602577;87;20957;-62
2021/06/03 02:35:16;;;;;;;1.30;0.90;;;;;;;21.14;64.73;101006.45;1600056;87;21124;-62
2021/06/03 02:37:43;;;;;;;1.22;0.90;;;;;;;21.15;64.77;101005.32;1586003;87;21143;-62
2021/06/03 02:40:29;;;;;;;1.07;0.75;;;;;;;21.16;64.83;101011.67;1603737;87;20993;-62
2021/06/03 02:42:56;;;;;;;1.72;0.82;;;;;;;21.16;64.91;101006.96;1591471;87;21129;-62
2021/06/03 02:45:26;;;;;;;19.77;5.62;;;;;;;21.16;64.97;101013.88;1599117;87;21222;-62
2021/06/03 02:47:52;;;;;;;9.45;2.85;;;;;;;21.17;65.01;101014.14;1601687;87;21123;-62
2021/06/03 02:50:19;;;;;;;3.55;1.50;;;;;;;21.16;65.01;101008.34;1602143;87;21475;-62
2021/06/03 02:52:45;;;;;;;1.98;0.98;;;;;;;21.16;64.98;101011.11;1597574;87;21029;-62
2021/06/03 02:55:15;;;;;;;2.67;1.07;;;;;;;21.17;64.93;101018.84;1603791;87;21225;-62
2021/06/03 02:57:42;;;;;;;2.10;1.00;;;;;;;21.15;64.90;101020.54;1608901;87;21095;-62
2021/06/03 03:00:11;;;;;;;1.30;0.95;;;;;;;21.15;64.85;101021.09;1632345;86;20910;-62
2021/06/03 03:02:37;;;;;;;1.65;0.90;;;;;;;21.14;64.81;101023.61;1609972;86;21139;-62
2021/06/03 03:05:05;;;;;;;1.10;0.88;;;;;;;21.12;64.81;101023.09;1633596;86;21014;-62
2021/06/03 03:07:32;;;;;;;1.75;1.00;;;;;;;21.10;64.78;101026.73;1605918;87;21178;-62
2021/06/03 03:10:00;;;;;;;1.47;0.90;;;;;;;21.08;64.74;101024.86;1609423;86;21013;-62
2021/06/03 03:12:26;;;;;;;0.95;0.70;;;;;;;21.10;64.73;101025.34;1602833;87;20996;-62
2021/06/03 03:14:53;;;;;;;1.45;0.82;;;;;;;21.12;64.75;101028.62;1603347;87;21099;-62
2021/06/03 03:17:19;;;;;;;1.02;0.72;;;;;;;21.12;64.83;101030.01;1600963;87;21059;-62
2021/06/03 03:19:45;;;;;;;1.30;0.80;;;;;;;21.13;64.90;101023.37;1606740;87;22202;-62
2021/06/03 03:22:11;;;;;;;1.22;0.70;;;;;;;21.13;64.96;101025.55;1607275;87;21017;-62
2021/06/03 03:24:37;;;;;;;0.93;0.80;;;;;;;21.14;65.00;101020.84;1606923;87;21633;-62
2021/06/03 03:27:05;;;;;;;0.90;0.72;;;;;;;21.14;64.99;101023.61;1608114;87;20920;-62
2021/06/03 03:29:31;;;;;;;1.35;0.80;;;;;;;21.15;64.94;101025.25;1628201;86;21048;-62
2021/06/03 03:31:57;;;;;;;1.27;0.72;;;;;;;21.14;64.88;101018.08;1602573;87;21112;-62
2021/06/03 03:34:23;;;;;;;0.98;0.80;;;;;;;21.13;64.83;101026.94;1602794;86;21856;-62
2021/06/03 03:36:49;;;;;;;1.05;0.72;;;;;;;21.13;64.80;101031.68;1602997;87;21004;-61
2021/06/03 03:39:15;;;;;;;2.52;1.12;;;;;;;21.13;64.74;101034.45;1606626;87;21119;-62
2021/06/03 03:41:42;;;;;;;1.50;0.90;;;;;;;21.11;64.70;101036.11;1605858;86;21475;-62
2021/06/03 03:44:08;;;;;;;1.65;1.00;;;;;;;21.09;64.69;101032.03;1603145;87;22040;-63
2021/06/03 03:46:34;;;;;;;0.95;0.72;;;;;;;21.09;64.68;101034.80;1611262;87;21076;-62
2021/06/03 03:49:00;;;;;;;1.22;0.80;;;;;;;21.06;64.67;101027.11;1623698;86;21435;-62
2021/06/03 03:51:26;;;;;;;1.12;0.72;;;;;;;21.07;64.65;101032.90;1621829;86;21116;-63
2021/06/03 03:53:53;;;;;;;1.00;0.60;;;;;;;21.09;64.69;101034.80;1604696;87;21074;-62
2021/06/03 03:56:23;;;;;;;0.68;0.57;;;;;;;21.09;64.76;101033.41;1610916;87;21744;-64
2021/06/03 03:58:51;;;;;;;1.60;0.98;;;;;;;21.10;64.86;101035.02;1631439;86;21075;-64
2021/06/03 04:01:18;;;;;;;1.07;0.70;;;;;;;21.12;64.96;101036.92;1595432;88;21140;-64
2021/06/03 04:03:44;;;;;;;0.98;0.70;;;;;;;21.11;64.99;101037.48;1600541;87;21024;-63
2021/06/03 04:06:10;;;;;;;0.93;0.72;;;;;;;21.13;64.99;101033.86;1626045;86;21141;-64
2021/06/03 04:08:36;;;;;;;1.05;0.70;;;;;;;21.15;64.95;101034.94;1629405;86;21356;-64
2021/06/03 04:11:03;;;;;;;1.65;0.90;;;;;;;21.18;64.91;101039.83;1633972;86;21032;-64
2021/06/03 04:13:29;;;;;;;1.00;0.70;;;;;;;21.20;64.86;101037.58;1601063;87;21031;-62
2021/06/03 04:15:57;;;;;;;1.20;0.80;;;;;;;21.23;64.81;101035.55;1630492;86;21037;-63
2021/06/03 04:18:26;;;;;;;0.95;0.80;;;;;;;21.25;64.75;101042.42;1603515;87;21083;-64
2021/06/03 04:20:52;;;;;;;1.35;0.80;;;;;;;21.28;64.70;101049.27;1610591;87;21711;-62
2021/06/03 04:23:19;;;;;;;0.70;0.70;;;;;;;21.31;64.66;101052.21;1605392;86;21147;-61
2021/06/03 04:25:45;;;;;;;1.30;0.75;;;;;;;21.34;64.62;101054.93;1611659;87;21004;-61
2021/06/03 04:28:11;;;;;;;0.90;0.70;;;;;;;21.38;64.59;101052.59;1617034;86;21024;-64
2021/06/03 04:30:40;;;;;;;1.10;0.80;;;;;;;21.46;64.64;101065.41;1641359;86;21116;-63
2021/06/03 04:33:09;;;;;;;0.93;0.60;;;;;;;21.53;64.69;101069.92;1601944;88;21090;-63
2021/06/03 04:35:35;;;;;;;1.80;0.60;;;;;;;21.58;64.74;101063.69;1616516;86;21143;-63
2021/06/03 04:38:02;;;;;;;7.25;2.75;;;;;;;21.65;64.77;101076.50;1610981;87;21022;-66
2021/06/03 04:40:28;;;;;;;41.53;11.85;;;;;;;21.70;64.78;101076.93;1611965;87;21120;-67
2021/06/03 04:42:54;;;;;;;66.85;17.45;;;;;;;21.75;64.76;101076.80;1614438;86;21682;-64
2021/06/03 04:45:21;;;;;;;69.72;18.57;;;;;;;21.80;64.83;101080.81;1614076;87;21423;-61
2021/06/03 04:47:48;;;;;;;53.25;14.00;;;;;;;21.82;64.86;101079.35;1602858;87;21556;-63
2021/06/03 04:50:16;;;;;;;33.20;11.63;;;;;;;21.88;64.94;101082.80;1625245;86;21103;-64
2021/06/03 04:52:42;;;;;;;19.70;6.67;;;;;;;21.93;65.08;101081.88;1630211;86;21068;-64
2021/06/03 04:55:15;;;;;;;14.50;5.55;;;;;;;21.98;65.25;101083.12;1610442;87;21024;-61
2021/06/03 04:57:42;;;;;;;27.15;11.05;;;;;;;22.03;65.37;101084.34;1631438;86;21137;-58
2021/06/03 05:00:12;;;;;;;21.97;11.08;;;;;;;22.06;65.44;101087.31;1614588;86;21065;-59
2021/06/03 05:02:38;;;;;;;24.67;9.90;;;;;;;22.10;65.51;101090.25;1620158;86;21160;-58
2021/06/03 05:05:06;;;;;;;66.45;21.95;;;;;;;22.13;65.61;101089.61;1597289;88;21548;-60
2021/06/03 05:07:32;;;;;;;73.87;22.32;;;;;;;22.17;65.72;101089.21;1603769;87;21159;-59
2021/06/03 05:09:58;;;;;;;65.70;21.00;;;;;;;22.20;65.83;101089.95;1590578;88;21630;-60
2021/06/03 05:12:25;;;;;;;32.60;11.25;;;;;;;22.24;65.95;101097.86;1621061;86;21609;-58
2021/06/03 05:14:51;;;;;;;17.57;6.22;;;;;;;22.28;66.10;101092.74;1603481;87;21178;-58
2021/06/03 05:17:18;;;;;;;16.35;4.80;;;;;;;22.32;66.17;101099.27;1626837;86;21053;-58
2021/06/03 05:19:44;;;;;;;17.40;6.80;;;;;;;22.36;66.25;101098.09;1598904;87;21175;-59
2021/06/03 05:22:10;;;;;;;63.35;18.42;;;;;;;22.40;66.32;101098.25;1603610;87;22836;-61
2021/06/03 05:24:37;;;;;;;89.07;25.70;;;;;;;22.43;66.45;101104.53;1599838;87;21131;-61
2021/06/03 05:27:04;;;;;;;108.95;31.93;;;;;;;22.46;66.57;101105.27;1607092;87;21096;-59
2021/06/03 05:29:31;;;;;;;193.15;49.90;;;;;;;22.48;66.66;101111.31;1604479;87;21138;-60
2021/06/03 05:31:57;;;;;;;132.70;38.55;;;;;;;22.50;66.79;101110.41;1600255;87;21168;-60
2021/06/03 06:45:06;;;;;;;2.67;1.50;;;;;;;23.31;64.95;101181.43;1846603;76;23195;-63
2021/06/03 06:47:35;;;;;;;3.35;1.25;;;;;;;23.14;65.18;101183.63;1802006;77;22264;-63
2021/06/03 06:50:05;;;;;;;1.92;1.00;;;;;;;23.05;65.23;101187.79;1813625;77;21337;-63
2021/06/03 06:52:31;;;;;;;1.95;1.30;;;;;;;22.95;65.22;101186.73;1816511;77;21364;-63
2021/06/03 06:54:57;;;;;;;1.57;1.07;;;;;;;22.87;65.18;101190.88;1812686;77;20986;-63
2021/06/03 06:57:23;;;;;;;1.55;1.10;;;;;;;22.80;65.13;101198.84;1831328;77;20994;-63
2021/06/03 06:59:49;;;;;;;1.47;0.95;;;;;;;22.71;65.11;101202.42;1830624;77;20995;-63
2021/06/03 07:02:15;;;;;;;2.98;0.90;;;;;;;22.62;65.07;101193.78;1816038;77;21776;-63
2021/06/03 07:04:43;;;;;;;1.50;1.00;;;;;;;22.54;65.07;101195.40;1803506;77;20861;-63
2021/06/03 07:07:09;;;;;;;1.15;0.80;;;;;;;22.47;65.05;101195.63;1803724;77;20982;-63
2021/06/03 07:09:36;;;;;;;2.40;1.10;;;;;;;22.40;65.07;101196.67;1813505;77;20999;-63
2021/06/03 07:12:03;;;;;;;1.75;1.00;;;;;;;22.35;65.05;101201.78;1804371;77;20866;-63
2021/06/03 07:14:29;;;;;;;1.20;0.90;;;;;;;22.33;65.09;101204.05;1788800;77;21060;-62
2021/06/03 07:16:55;;;;;;;1.35;0.82;;;;;;;22.30;65.17;101204.69;1811979;77;21480;-63
2021/06/03 07:19:22;;;;;;;1.17;0.70;;;;;;;22.27;65.27;101199.80;1827490;77;20959;-63
2021/06/03 07:21:47;;;;;;;1.50;0.93;;;;;;;22.25;65.35;101200.10;1808174;77;20937;-63
2021/06/03 07:24:14;;;;;;;1.30;0.88;;;;;;;22.23;65.39;101200.19;1830245;77;20983;-63
2021/06/03 07:26:40;;;;;;;1.85;0.70;;;;;;;22.22;65.39;101202.70;1805326;77;21228;-63
2021/06/03 07:29:06;;;;;;;1.50;0.80;;;;;;;22.19;65.38;101193.65;1819471;77;20842;-63
2021/06/03 07:31:34;;;;;;;1.80;0.75;;;;;;;22.17;65.32;101196.73;1799020;77;21487;-63
2021/06/03 07:34:03;;;;;;;1.57;0.90;;;;;;;22.15;65.27;101196.21;1792510;77;21375;-63
2021/06/03 07:36:29;;;;;;;0.93;0.70;;;;;;;22.13;65.26;101197.68;1829554;77;21046;-63
2021/06/03 07:38:55;;;;;;;1.47;0.93;;;;;;;22.09;65.22;101192.53;1819519;77;21027;-63
2021/06/03 07:41:21;;;;;;;1.00;0.72;;;;;;;22.06;65.19;101191.22;1811636;77;21407;-63
2021/06/03 07:43:47;;;;;;;2.00;0.70;;;;;;;22.03;65.19;101184.09;1827474;77;21024;-63
2021/06/03 07:46:15;;;;;;;1.07;0.60;;;;;;;22.04;65.18;101188.50;1824673;76;20929;-63
2021/06/03 07:48:41;;;;;;;1.20;0.70;;;;;;;22.03;65.20;101189.06;1830402;77;20927;-63
2021/06/03 07:51:09;;;;;;;0.90;0.65;;;;;;;22.04;65.27;101194.86;1833213;76;21065;-63
2021/06/03 07:53:35;;;;;;;0.98;0.60;;;;;;;22.04;65.35;101196.25;1816909;77;21615;-63
2021/06/03 07:56:01;;;;;;;1.02;0.57;;;;;;;22.04;65.40;101197.64;1820152;77;20968;-63
2021/06/03 07:58:28;;;;;;;0.90;0.70;;;;;;;22.05;65.41;101197.07;1841061;76;21390;-63
2021/06/03 08:00:54;;;;;;;1.10;0.80;;;;;;;22.04;65.38;101200.97;1839439;77;21012;-63
2021/06/03 08:03:20;;;;;;;0.98;0.70;;;;;;;22.03;65.36;101203.48;1832156;76;21162;-63
2021/06/03 08:05:46;;;;;;;1.42;0.75;;;;;;;22.01;65.31;101196.08;1851741;77;21060;-63
2021/06/03 08:08:12;;;;;;;1.00;0.50;;;;;;;22.00;65.29;101201.36;1815628;76;20895;-63
2021/06/03 08:10:41;;;;;;;1.00;0.70;;;;;;;21.97;65.22;101204.20;1841176;77;21435;-63
2021/06/03 08:13:08;;;;;;;1.05;0.65;;;;;;;21.96;65.21;101205.34;1813477;77;21465;-63
2021/06/03 08:15:35;;;;;;;2.77;1.75;;;;;;;21.95;65.21;101208.41;1838235;76;21305;-63
2021/06/03 08:18:02;;;;;;;0.50;0.50;;;;;;;21.94;65.16;101210.36;1832761;76;21330;-63
2021/06/03 08:20:41;;;;;;;0.90;0.80;;;;;;;21.93;65.13;101203.77;1843075;77;20956;-63
2021/06/03 08:23:08;;;;;;;0.60;0.50;;;;;;;21.95;65.09;101209.80;1833678;76;21036;-63
2021/06/03 08:25:35;;;;;;;0.70;0.50;;;;;;;21.95;65.10;101207.84;1834810;76;21441;-63
2021/06/03 08:28:01;;;;;;;0.98;0.50;;;;;;;21.97;65.19;101212.52;1778371;78;23191;-63
2021/06/03 08:30:27;;;;;;;0.90;0.50;;;;;;;22.00;65.25;101208.28;1785471;78;20945;-63
2021/06/03 08:32:53;;;;;;;0.98;0.60;;;;;;;22.01;65.29;101207.98;1771919;78;21035;-63
2021/06/03 08:35:22;;;;;;;0.70;0.40;;;;;;;22.01;65.29;101220.45;1777964;78;21052;-63
2021/06/03 08:37:52;;;;;;;0.88;0.60;;;;;;;22.01;65.29;101221.01;1770873;78;21039;-63
2021/06/03 08:40:21;;;;;;;0.68;0.50;;;;;;;22.01;65.23;101211.31;1796991;78;21101;-63
2021/06/03 08:42:52;;;;;;;0.93;0.65;;;;;;;22.01;65.17;101223.22;1784851;78;21500;-63
2021/06/03 08:45:18;;;;;;;0.50;0.40;;;;;;;22.00;65.12;101222.14;1776961;78;21020;-63
2021/06/03 08:47:44;;;;;;;0.72;0.50;;;;;;;21.99;65.05;101219.11;1794140;78;20944;-63
2021/06/03 08:50:11;;;;;;;0.40;0.40;;;;;;;21.97;65.01;101217.23;1775668;78;21461;-63
2021/06/03 08:52:37;;;;;;;0.72;0.60;;;;;;;21.96;65.00;101217.80;1775978;78;21098;-64
2021/06/03 08:55:08;;;;;;;0.57;0.40;;;;;;;21.95;64.95;101221.70;1782626;78;21636;-63
2021/06/03 08:57:34;;;;;;;0.60;0.40;;;;;;;21.93;64.94;101220.39;1777106;78;21367;-63
2021/06/03 09:00:01;;;;;;;0.47;0.47;;;;;;;21.95;64.88;101218.93;1790662;78;21075;-63
2021/06/03 09:02:28;;;;;;;0.70;0.50;;;;;;;21.97;64.91;101220.01;1772959;78;21453;-63
2021/06/03 09:04:54;;;;;;;0.40;0.40;;;;;;;21.99;64.97;101222.70;1775910;78;21280;-63
2021/06/03 09:07:33;;;;;;;0.60;0.50;;;;;;;22.01;65.03;101220.45;1769705;78;21076;-63
2021/06/03 09:10:11;;;;;;;0.47;0.40;;;;;;;22.03;65.09;101223.70;1779511;78;21419;-63
2021/06/03 09:12:37;;;;;;;0.70;0.47;;;;;;;22.05;65.10;101222.01;1766878;78;21008;-63
2021/06/03 09:15:16;;;;;;;0.30;0.30;;;;;;;22.04;65.06;101225.34;1791673;78;21300;-63
2021/06/03 09:17:48;;;;;;;1.32;0.50;;;;;;;22.03;65.00;101220.93;1791520;78;21169;-63
2021/06/03 09:20:14;;;;;;;0.40;0.40;;;;;;;22.04;64.95;101228.67;1798171;78;21064;-63
2021/06/03 09:22:41;;;;;;;0.40;0.40;;;;;;;22.04;64.88;101217.59;1797202;78;20937;-63
2021/06/03 09:25:32;;;;;;;0.57;0.40;;;;;;;22.01;64.84;101217.67;1772585;78;21294;-63
2021/06/03 09:28:23;;;;;;;0.30;0.30;;;;;;;22.00;64.80;101229.88;1739094;81;21123;-63
2021/06/03 09:31:09;;;;;;;0.23;0.23;;;;;;;21.98;64.77;101226.59;1784624;78;21142;-63
2021/06/03 09:33:49;;;;;;;0.50;0.50;;;;;;;21.96;64.73;101226.68;1770710;78;20945;-63
2021/06/03 09:36:41;;;;;;;1.27;0.30;;;;;;;21.93;64.71;101229.52;1763961;78;21080;-63
2021/06/03 09:39:25;;;;;;;0.40;0.40;;;;;;;21.94;64.67;101232.52;1774434;78;20922;-63
2021/06/03 09:41:58;;;;;;;1.30;0.40;;;;;;;21.94;64.71;101233.12;1787306;78;21056;-63
2021/06/03 09:44:49;;;;;;;1.65;0.30;;;;;;;21.95;64.79;101222.27;1787617;78;21263;-63
2021/06/03 09:47:19;;;;;;;0.65;0.50;;;;;;;21.94;64.87;101226.98;1791603;78;20936;-63
2021/06/03 09:49:48;;;;;;;1.02;0.70;;;;;;;21.94;64.91;101229.75;1768636;78;21060;-63
2021/06/03 09:52:17;;;;;;;0.47;0.40;;;;;;;21.94;64.90;101233.12;1770148;78;20997;-63
2021/06/03 09:54:55;;;;;;;0.85;0.50;;;;;;;21.93;64.87;101223.16;1769286;78;20866;-63
2021/06/03 09:57:21;;;;;;;0.62;0.40;;;;;;;21.92;64.83;101232.56;1769869;78;21243;-63
2021/06/03 09:59:59;;;;;;;0.53;0.45;;;;;;;21.91;64.78;101232.31;1769496;78;20938;-63
2021/06/03 10:02:25;;;;;;;0.40;0.40;;;;;;;21.89;64.75;101232.65;1769342;78;20922;-63
2021/06/03 10:04:53;;;;;;;0.30;0.30;;;;;;;21.86;64.72;101232.69;1768248;78;20898;-63
2021/06/03 10:07:30;;;;;;;0.57;0.37;;;;;;;21.85;64.70;101236.59;1765797;78;21491;-63
2021/06/03 10:10:14;;;;;;;0.65;0.35;;;;;;;21.83;64.69;101236.10;1772970;78;21105;-63
2021/06/03 10:12:44;;;;;;;0.72;0.45;;;;;;;21.84;64.65;101234.98;1767446;78;21021;-63
2021/06/03 10:15:23;;;;;;;0.40;0.40;;;;;;;21.85;64.67;101237.19;1762385;78;21424;-63
2021/06/03 10:18:00;;;;;;;0.72;0.35;;;;;;;21.86;64.74;101237.41;1741607;78;21160;-63
2021/06/03 10:20:40;;;;;;;0.28;0.28;;;;;;;21.86;64.82;101236.03;1785140;78;21013;-63
2021/06/03 10:23:09;;;;;;;0.80;0.50;;;;;;;21.85;64.86;101231.64;1766732;78;21067;-63
2021/06/03 10:25:36;;;;;;;0.42;0.40;;;;;;;21.85;64.85;101233.81;1770038;78;20973;-63
2021/06/03 10:28:09;;;;;;;0.50;0.40;;;;;;;21.85;64.83;101233.81;1780799;78;20937;-63
2021/06/03 10:30:39;;;;;;;1.10;0.40;;;;;;;21.85;64.76;101237.97;1777691;79;20964;-63
2021/06/03 10:33:11;;;;;;;0.40;0.40;;;;;;;21.85;64.73;101237.97;1778847;79;21031;-63
2021/06/03 10:35:39;;;;;;;0.95;0.50;;;;;;;21.85;64.70;101237.97;1782890;79;21061;-63
2021/06/03 10:38:06;;;;;;;0.30;0.30;;;;;;;21.85;64.65;101237.19;1772352;79;20958;-63
2021/06/03 10:40:39;;;;;;;0.85;0.40;;;;;;;21.84;64.62;101234.98;1771867;79;21090;-63
2021/06/03 10:43:06;;;;;;;0.30;0.30;;;;;;;21.84;64.54;101244.67;1781841;79;20969;-63
2021/06/03 10:45:33;;;;;;;0.47;0.37;;;;;;;21.85;64.53;101238.56;1789690;79;20937;-63
2021/06/03 10:47:59;;;;;;;0.35;0.30;;;;;;;21.86;64.51;101241.00;1790021;79;21346;-63
2021/06/03 10:50:28;;;;;;;0.30;0.23;;;;;;;21.90;64.50;101240.39;1774555;79;20965;-63
2021/06/03 10:52:55;;;;;;;0.50;0.35;;;;;;;21.90;64.57;101239.80;1780503;79;20970;-64
2021/06/03 10:55:33;;;;;;;0.20;0.20;;;;;;;21.93;64.64;101244.77;1753722;80;21045;-63
2021/06/03 10:58:04;;;;;;;0.30;0.30;;;;;;;21.96;64.69;101236.38;1774809;79;21399;-63
2021/06/03 11:00:47;;;;;;;0.33;0.30;;;;;;;22.00;64.68;101237.37;1772554;79;21137;-63
2021/06/03 11:03:24;;;;;;;0.33;0.30;;;;;;;22.06;64.63;101231.97;1768763;79;20907;-63
2021/06/03 11:05:51;;;;;;;0.50;0.47;;;;;;;22.07;64.53;101233.58;1766322;79;21052;-63
2021/06/03 11:08:33;;;;;;;0.50;0.33;;;;;;;22.11;64.44;101238.73;1777412;79;21005;-64
2021/06/03 11:11:14;;;;;;;0.42;0.40;;;;;;;22.13;64.35;101237.30;1784196;79;21123;-63
2021/06/03 11:13:52;;;;;;;0.40;0.30;;;;;;;22.18;64.29;101230.80;1786949;79;21096;-63
2021/06/03 11:16:26;;;;;;;0.68;0.40;;;;;;;22.20;64.20;101236.27;1775591;79;21438;-63
2021/06/03 11:19:01;;;;;;;0.55;0.40;;;;;;;22.23;64.14;101227.91;1790210;79;21019;-63
2021/06/03 11:21:42;;;;;;;0.50;0.40;;;;;;;22.23;64.07;101236.22;1783778;79;21013;-63
2021/06/03 11:24:36;;;;;;;0.85;0.50;;;;;;;22.24;64.00;101232.28;1779629;79;21469;-64
2021/06/03 11:27:07;;;;;;;0.40;0.40;;;;;;;22.29;63.94;101234.36;1774033;79;21073;-63
2021/06/03 11:29:35;;;;;;;0.50;0.40;;;;;;;22.35;63.98;101238.39;1796755;78;20992;-63
2021/06/03 11:32:07;;;;;;;0.40;0.40;;;;;;;22.37;64.01;101243.84;1800509;78;20957;-62
2021/06/03 11:34:46;;;;;;;0.60;0.55;;;;;;;22.40;64.06;101236.87;1798424;78;21032;-62
2021/06/03 11:37:27;;;;;;;1.02;0.50;;;;;;;22.42;64.06;101244.28;1769742;78;21036;-64
2021/06/03 11:40:02;;;;;;;0.70;0.40;;;;;;;22.45;64.02;101240.30;1777660;78;21233;-64
2021/06/03 11:42:38;;;;;;;0.88;0.37;;;;;;;22.46;63.93;101235.01;1794584;78;20922;-64
2021/06/03 11:45:29;;;;;;;0.57;0.37;;;;;;;22.49;63.86;101237.73;1777702;78;20989;-64
2021/06/03 11:48:02;;;;;;;0.55;0.40;;;;;;;22.49;63.78;101237.13;1775121;78;20993;-64
2021/06/03 11:50:33;;;;;;;1.32;0.42;;;;;;;22.50;63.70;101231.84;1768157;78;21003;-64
2021/06/03 11:53:05;;;;;;;0.30;0.30;;;;;;;22.50;63.63;101236.00;1774123;78;21073;-64
2021/06/03 11:55:45;;;;;;;0.40;0.30;;;;;;;22.51;63.60;101235.44;1776544;78;21395;-64
2021/06/03 11:58:34;;;;;;;0.57;0.40;;;;;;;22.51;63.52;101231.28;1777844;78;20998;-64
2021/06/03 12:01:13;;;;;;;0.53;0.40;;;;;;;22.50;63.49;101233.80;1774922;78;20910;-64
2021/06/03 12:03:42;;;;;;;0.65;0.40;;;;;;;22.51;63.44;101232.66;1768472;78;21021;-64
2021/06/03 12:06:15;;;;;;;0.53;0.40;;;;;;;22.52;63.40;101221.83;1778857;78;21097;-64
2021/06/03 12:08:48;;;;;;;0.30;0.30;;;;;;;22.55;63.41;101222.56;1779951;78;21048;-64
2021/06/03 12:11:25;;;;;;;0.37;0.37;;;;;;;22.58;63.48;101220.53;1793888;78;21458;-64
2021/06/03 12:14:19;;;;;;;0.40;0.30;;;;;;;22.61;63.53;101224.89;1784890;78;20985;-61
2021/06/03 12:16:59;;;;;;;0.90;0.50;;;;;;;22.64;63.54;101222.03;1786663;78;21022;-61
2021/06/03 12:19:29;;;;;;;0.40;0.30;;;;;;;22.67;63.46;101226.36;1794422;78;21099;-61
2021/06/03 12:22:01;;;;;;;0.40;0.40;;;;;;;22.70;63.38;101226.34;1791790;78;21055;-62
2021/06/03 12:24:44;;;;;;;0.45;0.35;;;;;;;22.69;63.29;101225.52;1772673;78;21037;-63
2021/06/03 12:27:32;;;;;;;0.53;0.40;;;;;;;22.70;63.22;101234.06;1767762;78;21063;-63
2021/06/03 12:30:29;;;;;;;0.68;0.40;;;;;;;22.72;63.16;101223.47;1786339;79;21593;-63
2021/06/03 12:33:29;;;;;;;0.57;0.35;;;;;;;22.75;63.10;101228.94;1782617;79;21031;-63
2021/06/03 12:36:00;;;;;;;0.30;0.30;;;;;;;22.79;63.00;101224.97;1764153;79;20977;-63
2021/06/03 12:38:48;;;;;;;0.60;0.40;;;;;;;22.80;62.89;101227.97;1772951;79;21064;-63
2021/06/03 12:41:35;;;;;;;0.70;0.55;;;;;;;22.82;62.81;101229.87;1774733;79;20982;-63
2021/06/03 12:44:07;;;;;;;0.47;0.47;;;;;;;22.85;62.77;101230.03;1776714;79;21455;-63
2021/06/03 12:46:36;;;;;;;0.65;0.50;;;;;;;22.87;62.68;101235.27;1781226;79;21169;-63
2021/06/03 12:49:26;;;;;;;0.50;0.42;;;;;;;22.90;62.59;101220.18;1773008;79;21452;-63